Time;durP1;ratioP1;P1;durP2;ratioP2;P2;SDS_P1;SDS_P2;PMS_P1;PMS_P2;Temp;Humidity;BMP_temperature;BMP_pressure;BME280_temperature;BME280_humidity;BME280_pressure;Samples;Min_cycle;Max_cycle;Signal;HPM_P1;HPM_P2
2021/07/04 00:00:39;;;;;;;12.30;10.85;;;19.40;90.90;;;;;;5035885;28;20978;-79
2021/07/04 00:03:05;;;;;;;17.60;9.13;;;19.40;90.90;;;;;;5039927;28;20034;-79
2021/07/04 00:05:44;;;;;;;10.60;7.53;;;19.40;90.90;;;;;;5041016;28;20041;-77
2021/07/04 00:08:11;;;;;;;;;;;19.40;91.00;;;;;;5061240;28;20075;-76
2021/07/04 00:10:59;;;;;;;17.83;10.68;;;19.40;90.80;;;;;;5050662;28;19916;-77
2021/07/04 00:13:27;;;;;;;10.05;8.88;;;19.40;90.90;;;;;;5049760;28;20036;-77
2021/07/04 00:15:53;;;;;;;9.82;8.38;;;19.40;90.80;;;;;;5057835;28;20021;-77
2021/07/04 00:18:21;;;;;;;8.75;7.85;;;19.40;90.80;;;;;;5041876;28;20032;-77
2021/07/04 00:20:48;;;;;;;14.43;10.77;;;19.40;90.90;;;;;;5049015;28;20022;-77
2021/07/04 00:23:15;;;;;;;11.45;10.18;;;19.40;90.90;;;;;;5054878;28;20029;-77
2021/07/04 00:25:42;;;;;;;9.07;8.00;;;19.40;90.90;;;;;;5053858;28;20515;-78
2021/07/04 00:28:08;;;;;;;10.25;8.05;;;19.40;90.90;;;;;;5048975;28;20026;-78
2021/07/04 00:30:34;;;;;;;11.50;10.10;;;19.50;90.90;;;;;;5052715;28;20021;-78
2021/07/04 00:33:00;;;;;;;10.85;9.73;;;19.50;90.90;;;;;;5060707;28;20039;-77
2021/07/04 00:35:26;;;;;;;13.13;9.05;;;19.50;90.90;;;;;;5060246;28;20400;-77
2021/07/04 00:37:52;;;;;;;11.05;9.00;;;19.50;90.90;;;;;;5058757;28;20114;-77
2021/07/04 00:40:21;;;;;;;13.27;8.88;;;19.40;90.90;;;;;;5084489;28;20032;-77
2021/07/04 00:42:47;;;;;;;15.23;10.18;;;19.40;90.90;;;;;;5061149;28;20025;-77
2021/07/04 00:45:19;;;;;;;16.65;11.57;;;19.50;90.90;;;;;;5035399;28;20037;-77
2021/07/04 00:47:45;;;;;;;16.15;12.07;;;19.50;90.90;;;;;;5036096;28;20486;-77
2021/07/04 00:50:11;;;;;;;10.77;8.93;;;19.40;90.80;;;;;;5055186;28;20029;-77
2021/07/04 00:52:38;;;;;;;14.77;11.77;;;19.40;91.00;;;;;;5066473;28;20039;-77
2021/07/04 00:55:05;;;;;;;13.45;11.95;;;19.40;91.00;;;;;;5051883;28;20482;-77
2021/07/04 00:57:32;;;;;;;13.23;11.45;;;19.40;91.10;;;;;;5049974;28;20064;-77
2021/07/04 00:59:58;;;;;;;11.77;9.90;;;19.40;91.10;;;;;;5051181;28;20121;-76
2021/07/04 01:02:24;;;;;;;11.90;9.55;;;19.40;91.20;;;;;;5047858;28;20111;-76
2021/07/04 01:04:50;;;;;;;14.07;11.32;;;19.40;91.20;;;;;;5057547;28;20053;-76
2021/07/04 01:07:16;;;;;;;13.18;9.75;;;19.40;91.10;;;;;;5069517;28;20032;-76
2021/07/04 01:09:42;;;;;;;11.77;10.57;;;19.40;91.10;;;;;;5058219;28;20420;-76
2021/07/04 01:12:08;;;;;;;11.82;10.48;;;19.40;91.10;;;;;;5053837;28;20025;-76
2021/07/04 01:14:34;;;;;;;15.07;11.25;;;19.40;91.00;;;;;;5060936;28;20090;-76
2021/07/04 01:17:00;;;;;;;12.52;11.23;;;19.40;90.90;;;;;;5059047;28;20078;-76
2021/07/04 01:19:25;;;;;;;16.35;13.07;;;19.40;91.00;;;;;;5062783;28;20028;-76
2021/07/04 01:21:54;;;;;;;14.20;12.75;;;19.40;91.10;;;;;;5057329;28;20029;-76
2021/07/04 01:24:20;;;;;;;13.15;11.45;;;19.40;91.20;;;;;;5055065;28;20496;-76
2021/07/04 01:26:46;;;;;;;13.00;11.63;;;19.30;91.10;;;;;;5063560;28;20028;-76
2021/07/04 01:29:11;;;;;;;15.00;13.45;;;19.30;91.20;;;;;;5050186;28;20023;-76
2021/07/04 01:31:37;;;;;;;14.98;13.38;;;19.30;91.20;;;;;;5067289;28;20389;-76
2021/07/04 01:34:03;;;;;;;11.70;10.38;;;19.30;91.20;;;;;;5044166;28;20079;-76
2021/07/04 01:36:28;;;;;;;12.93;11.63;;;19.30;91.20;;;;;;5035643;28;20021;-76
2021/07/04 01:38:54;;;;;;;12.07;10.63;;;19.40;91.20;;;;;;5051404;28;20033;-76
2021/07/04 01:41:20;;;;;;;16.80;13.40;;;19.40;91.20;;;;;;5072284;28;20029;-76
2021/07/04 01:43:45;;;;;;;14.63;12.95;;;19.30;91.20;;;;;;5028700;28;20038;-76
2021/07/04 01:46:11;;;;;;;12.80;11.25;;;19.40;91.20;;;;;;5058402;28;20034;-76
2021/07/04 01:48:37;;;;;;;15.05;13.18;;;19.30;91.20;;;;;;5036743;28;20128;-76
2021/07/04 01:51:02;;;;;;;15.43;13.82;;;19.30;91.20;;;;;;5062894;28;20029;-76
2021/07/04 01:53:28;;;;;;;13.52;12.23;;;19.30;91.20;;;;;;5054382;28;20057;-76
2021/07/04 01:55:54;;;;;;;11.80;10.60;;;19.30;91.20;;;;;;5056304;28;20025;-76
2021/07/04 01:58:20;;;;;;;18.05;15.00;;;19.30;91.30;;;;;;5052372;28;20028;-76
2021/07/04 02:00:45;;;;;;;17.95;14.32;;;19.20;91.20;;;;;;5055041;28;20056;-76
2021/07/04 02:03:12;;;;;;;15.57;13.02;;;19.20;91.20;;;;;;5049204;28;20380;-76
2021/07/04 02:05:38;;;;;;;12.68;11.38;;;19.20;91.20;;;;;;5058095;28;20041;-76
2021/07/04 02:08:05;;;;;;;14.77;13.27;;;19.20;91.30;;;;;;5052037;28;20024;-76
2021/07/04 02:10:35;;;;;;;16.88;13.48;;;19.20;91.30;;;;;;5049042;28;20063;-76
2021/07/04 02:13:01;;;;;;;17.48;12.07;;;19.20;91.20;;;;;;5064618;28;20028;-76
2021/07/04 02:15:29;;;;;;;14.63;12.70;;;19.20;91.20;;;;;;5048670;28;20030;-78
2021/07/04 02:17:56;;;;;;;13.13;11.80;;;19.20;91.20;;;;;;5038106;28;20037;-78
2021/07/04 02:20:31;;;;;;;16.20;13.02;;;19.20;91.20;;;;;;5043167;28;20037;-78
2021/07/04 02:22:58;;;;;;;15.43;13.85;;;19.20;91.30;;;;;;5052015;28;20056;-78
2021/07/04 02:25:23;;;;;;;12.73;11.45;;;19.20;91.60;;;;;;5060048;28;20027;-78
2021/07/04 02:27:49;;;;;;;12.68;10.82;;;19.10;91.30;;;;;;5048842;28;20022;-78
2021/07/04 02:30:15;;;;;;;29.88;17.70;;;19.20;91.30;;;;;;5055902;28;20393;-78
2021/07/04 02:32:40;;;;;;;16.58;14.80;;;19.20;91.30;;;;;;5053284;28;20030;-79
2021/07/04 02:35:07;;;;;;;15.57;12.85;;;19.10;91.20;;;;;;5052357;28;20115;-78
2021/07/04 02:37:32;;;;;;;13.88;12.35;;;19.10;91.30;;;;;;5050144;28;20050;-78
2021/07/04 02:39:58;;;;;;;13.85;12.45;;;19.10;91.30;;;;;;5038635;28;20120;-78
2021/07/04 02:42:23;;;;;;;12.85;11.20;;;19.10;91.20;;;;;;5043435;28;20025;-78
2021/07/04 02:44:49;;;;;;;21.23;12.75;;;19.10;91.30;;;;;;5052329;28;20501;-78
2021/07/04 02:47:15;;;;;;;16.45;14.18;;;19.10;91.30;;;;;;5051873;28;20045;-78
2021/07/04 02:49:40;;;;;;;18.10;14.82;;;19.00;91.40;;;;;;5051088;28;20031;-78
2021/07/04 02:52:06;;;;;;;51.42;16.48;;;19.00;91.10;;;;;;5052160;28;20032;-78
2021/07/04 02:54:31;;;;;;;17.33;15.52;;;19.00;91.10;;;;;;5069646;28;20035;-78
2021/07/04 02:56:57;;;;;;;15.07;12.27;;;18.90;91.40;;;;;;5060284;28;20025;-79
2021/07/04 02:59:23;;;;;;;13.13;11.40;;;18.90;91.20;;;;;;5049323;28;20030;-78
2021/07/04 03:01:48;;;;;;;19.23;15.30;;;18.80;91.30;;;;;;5036262;28;20101;-78
2021/07/04 03:04:14;;;;;;;17.42;12.60;;;18.80;91.30;;;;;;5040599;28;20032;-78
2021/07/04 03:06:40;;;;;;;15.35;13.15;;;18.80;91.40;;;;;;5049188;28;20048;-78
2021/07/04 03:09:05;;;;;;;14.13;12.63;;;18.80;91.40;;;;;;5063075;28;20029;-78
2021/07/04 03:11:31;;;;;;;11.80;10.60;;;18.80;91.40;;;;;;5058692;28;20389;-78
2021/07/04 03:13:56;;;;;;;15.32;13.75;;;18.70;91.40;;;;;;5059752;28;20115;-78
2021/07/04 03:16:22;;;;;;;13.90;11.73;;;18.70;91.40;;;;;;5045834;28;20082;-78
2021/07/04 03:18:48;;;;;;;16.27;13.57;;;18.70;91.40;;;;;;5045356;28;20052;-78
2021/07/04 03:21:13;;;;;;;16.73;13.98;;;18.70;91.40;;;;;;5046749;28;20041;-78
2021/07/04 03:23:39;;;;;;;14.00;12.50;;;18.60;91.30;;;;;;5060377;28;20397;-78
2021/07/04 03:26:05;;;;;;;16.55;14.85;;;18.60;91.30;;;;;;5034071;28;20030;-78
2021/07/04 03:28:30;;;;;;;22.70;14.13;;;18.60;91.30;;;;;;5056470;28;20409;-78
2021/07/04 03:30:56;;;;;;;22.50;16.05;;;18.60;91.30;;;;;;5050389;28;20538;-78
2021/07/04 03:33:21;;;;;;;14.63;13.10;;;18.60;91.30;;;;;;5056130;28;20079;-78
2021/07/04 03:35:47;;;;;;;19.23;15.55;;;18.60;91.30;;;;;;5062581;28;20428;-78
2021/07/04 03:38:13;;;;;;;16.38;14.63;;;18.60;91.30;;;;;;5057105;28;20034;-78
2021/07/04 03:40:39;;;;;;;14.80;11.73;;;18.60;91.30;;;;;;5043614;28;20397;-78
2021/07/04 03:43:04;;;;;;;14.63;12.95;;;18.60;91.30;;;;;;5055169;28;20036;-78
2021/07/04 03:45:30;;;;;;;20.60;15.35;;;18.60;91.40;;;;;;5049105;28;20052;-78
2021/07/04 03:47:56;;;;;;;13.00;11.70;;;18.60;91.40;;;;;;5053167;28;20032;-78
2021/07/04 03:50:21;;;;;;;16.17;13.82;;;18.60;91.40;;;;;;5046925;28;20101;-78
2021/07/04 03:52:53;;;;;;;19.55;14.93;;;18.70;91.50;;;;;;5051751;28;20072;-78
2021/07/04 03:55:19;;;;;;;19.88;17.88;;;18.70;91.50;;;;;;5060720;28;20064;-78
2021/07/04 03:57:45;;;;;;;21.63;17.52;;;18.70;91.50;;;;;;5047770;28;20064;-78
2021/07/04 04:00:13;;;;;;;31.60;18.55;;;18.70;91.60;;;;;;5049708;28;20035;-78
2021/07/04 04:02:38;;;;;;;37.00;17.25;;;18.70;91.60;;;;;;5039122;28;20040;-78
2021/07/04 04:05:05;;;;;;;52.63;18.42;;;18.70;91.60;;;;;;5057859;28;20053;-78
2021/07/04 04:07:31;;;;;;;99.70;21.40;;;18.70;91.60;;;;;;5056684;28;20425;-78
2021/07/04 04:09:56;;;;;;;31.85;14.15;;;18.80;91.60;;;;;;5051950;28;20021;-78
2021/07/04 04:12:22;;;;;;;34.72;17.80;;;18.80;91.60;;;;;;5040011;28;20040;-78
2021/07/04 04:14:48;;;;;;;19.23;15.07;;;18.80;91.60;;;;;;5041371;28;20065;-78
2021/07/04 04:17:14;;;;;;;26.33;16.33;;;18.80;91.60;;;;;;5058279;28;20101;-78
2021/07/04 04:19:40;;;;;;;77.68;19.40;;;18.80;91.60;;;;;;5054243;28;20067;-78
2021/07/04 04:22:06;;;;;;;61.78;16.80;;;18.80;91.60;;;;;;5050906;28;20036;-78
2021/07/04 04:24:32;;;;;;;80.43;19.27;;;18.80;91.60;;;;;;5038889;28;20383;-78
2021/07/04 04:26:58;;;;;;;70.50;19.70;;;18.90;91.60;;;;;;5050791;28;20148;-78
2021/07/04 04:29:24;;;;;;;52.58;19.85;;;18.90;91.60;;;;;;5049421;28;20500;-78
2021/07/04 04:31:49;;;;;;;61.67;16.60;;;18.90;91.70;;;;;;5053137;28;20542;-78
2021/07/04 04:34:16;;;;;;;61.42;18.83;;;18.90;91.70;;;;;;5050701;28;20056;-78
2021/07/04 04:36:42;;;;;;;31.17;17.55;;;18.90;91.60;;;;;;5070547;28;20032;-78
2021/07/04 04:39:08;;;;;;;31.65;16.25;;;19.00;91.70;;;;;;5047875;28;20021;-78
2021/07/04 04:41:36;;;;;;;30.83;18.17;;;19.00;91.70;;;;;;5049119;28;20396;-78
2021/07/04 04:44:04;;;;;;;64.00;21.77;;;19.00;91.70;;;;;;5058019;28;20043;-78
2021/07/04 04:46:30;;;;;;;;;;;19.00;91.70;;;;;;5052035;28;20627;-78
2021/07/04 04:48:56;;;;;;;30.95;17.48;;;19.00;91.60;;;;;;5050757;28;19975;-78
2021/07/04 04:51:22;;;;;;;26.95;16.40;;;19.00;91.70;;;;;;5042009;28;20104;-78
2021/07/04 04:53:47;;;;;;;20.00;15.80;;;19.00;91.70;;;;;;5047437;28;20026;-78
2021/07/04 04:56:13;;;;;;;23.77;16.45;;;19.10;91.90;;;;;;5054196;28;20040;-78
2021/07/04 04:58:38;;;;;;;22.70;16.85;;;19.10;91.50;;;;;;5044187;28;20057;-78
2021/07/04 05:01:04;;;;;;;29.08;16.05;;;19.10;91.50;;;;;;5066832;28;20026;-78
2021/07/04 05:03:30;;;;;;;18.45;14.65;;;19.20;91.80;;;;;;5060176;28;20028;-78
2021/07/04 05:05:55;;;;;;;25.35;16.25;;;19.20;91.40;;;;;;5060968;28;20045;-78
2021/07/04 05:08:21;;;;;;;22.70;16.48;;;19.20;91.40;;;;;;5071128;28;20456;-78
2021/07/04 05:10:46;;;;;;;19.48;15.13;;;19.30;91.30;;;;;;5055140;28;20033;-78
2021/07/04 05:13:12;;;;;;;20.33;18.23;;;19.30;91.30;;;;;;5045638;28;20064;-78
2021/07/04 05:15:38;;;;;;;21.17;18.92;;;19.30;91.20;;;;;;5055971;28;20030;-78
2021/07/04 05:18:05;;;;;;;20.52;17.17;;;19.30;91.30;;;;;;5047202;28;20060;-78
2021/07/04 05:20:31;;;;;;;23.05;20.55;;;19.40;91.30;;;;;;5044453;28;20021;-78
2021/07/04 05:22:56;;;;;;;23.63;19.02;;;19.50;91.20;;;;;;5057583;28;20071;-78
2021/07/04 05:25:22;;;;;;;19.05;17.05;;;19.50;91.10;;;;;;5043410;28;20120;-78
2021/07/04 05:27:48;;;;;;;22.15;18.42;;;19.50;91.20;;;;;;5050899;28;20094;-78
2021/07/04 05:30:14;;;;;;;17.17;14.82;;;19.50;91.20;;;;;;5056573;28;20025;-78
2021/07/04 05:32:40;;;;;;;19.92;17.83;;;19.50;91.20;;;;;;5065976;28;20062;-78
2021/07/04 05:35:06;;;;;;;17.02;15.27;;;19.50;91.10;;;;;;5061910;28;20026;-78
2021/07/04 05:37:33;;;;;;;16.00;13.20;;;19.50;91.10;;;;;;5034495;28;20450;-78
2021/07/04 05:40:02;;;;;;;22.85;17.00;;;19.50;91.10;;;;;;5052470;28;20017;-78
2021/07/04 05:42:28;;;;;;;16.98;15.15;;;19.60;91.10;;;;;;5048195;28;20051;-78
2021/07/04 05:44:54;;;;;;;18.33;16.30;;;19.60;91.10;;;;;;5065114;28;20054;-78
2021/07/04 05:47:20;;;;;;;26.30;21.90;;;19.60;91.10;;;;;;5063258;28;20024;-78
2021/07/04 05:49:45;;;;;;;33.33;25.27;;;19.60;91.10;;;;;;5034464;28;20026;-78
2021/07/04 05:52:11;;;;;;;33.50;23.05;;;19.60;91.10;;;;;;5057477;28;20026;-78
2021/07/04 05:54:37;;;;;;;32.55;25.13;;;19.60;91.10;;;;;;5042103;28;20025;-78
2021/07/04 05:57:06;;;;;;;29.52;23.55;;;19.60;91.00;;;;;;5044088;28;20049;-78
2021/07/04 05:59:34;;;;;;;;;;;19.60;91.00;;;;;;5041707;28;20032;-78
2021/07/04 06:02:00;;;;;;;28.88;24.08;;;19.60;90.90;;;;;;5068705;28;19915;-78
2021/07/04 06:04:26;;;;;;;38.25;29.27;;;19.60;90.90;;;;;;5050531;28;20034;-78
2021/07/04 06:06:52;;;;;;;40.50;30.13;;;19.60;90.90;;;;;;5050040;28;20047;-78
2021/07/04 06:09:18;;;;;;;36.03;26.63;;;19.70;90.90;;;;;;5042229;28;20060;-78
2021/07/04 06:11:44;;;;;;;34.88;25.80;;;19.70;90.80;;;;;;5054493;28;20100;-78
2021/07/04 06:14:10;;;;;;;57.90;35.30;;;19.70;90.80;;;;;;5058997;28;20033;-78
2021/07/04 06:16:36;;;;;;;39.90;29.30;;;19.70;90.80;;;;;;5037876;28;20371;-78
2021/07/04 06:19:02;;;;;;;43.17;30.63;;;19.80;90.90;;;;;;5049540;28;20091;-77
2021/07/04 06:21:28;;;;;;;42.22;29.80;;;19.90;90.90;;;;;;5035529;28;20036;-77
2021/07/04 06:23:53;;;;;;;42.38;28.48;;;19.90;90.70;;;;;;5040008;28;20029;-80
2021/07/04 06:26:19;;;;;;;43.88;28.05;;;19.90;90.60;;;;;;5048189;28;20082;-80
2021/07/04 06:28:45;;;;;;;44.05;30.60;;;20.10;90.50;;;;;;5068204;28;20139;-81
2021/07/04 06:31:10;;;;;;;39.13;27.65;;;20.10;90.30;;;;;;5050450;28;20059;-80
2021/07/04 06:33:36;;;;;;;46.63;30.92;;;20.10;90.30;;;;;;5060082;28;20076;-80
2021/07/04 06:36:02;;;;;;;44.40;31.45;;;20.00;90.30;;;;;;5061761;28;20125;-80
2021/07/04 06:38:28;;;;;;;34.17;25.60;;;20.00;90.20;;;;;;5063024;28;20040;-80
2021/07/04 06:40:53;;;;;;;36.03;26.58;;;20.00;90.20;;;;;;5056243;28;20385;-80
2021/07/04 06:43:19;;;;;;;47.70;29.95;;;20.00;90.30;;;;;;5036749;28;20018;-80
2021/07/04 06:45:45;;;;;;;38.17;27.23;;;20.10;90.30;;;;;;5054011;28;20090;-80
2021/07/04 06:48:11;;;;;;;33.58;25.35;;;20.10;90.40;;;;;;5056777;28;20029;-78
2021/07/04 06:50:37;;;;;;;36.28;26.88;;;20.00;90.40;;;;;;5048120;28;20025;-78
2021/07/04 06:53:03;;;;;;;36.33;25.63;;;20.00;90.50;;;;;;5048149;28;20516;-78
2021/07/04 06:55:28;;;;;;;37.33;26.67;;;20.00;90.50;;;;;;5043629;28;20426;-78
2021/07/04 06:57:54;;;;;;;32.60;24.13;;;20.10;90.70;;;;;;5041419;28;20493;-78
2021/07/04 07:00:20;;;;;;;34.38;26.15;;;20.10;90.30;;;;;;5050349;28;20036;-78
2021/07/04 07:02:47;;;;;;;33.10;23.77;;;20.10;90.30;;;;;;5056178;28;20029;-78
2021/07/04 07:05:13;;;;;;;34.60;25.33;;;20.20;90.20;;;;;;5065911;28;20386;-78
2021/07/04 07:07:40;;;;;;;33.05;24.05;;;20.20;90.10;;;;;;5060708;28;20563;-78
2021/07/04 07:10:10;;;;;;;36.97;25.88;;;20.30;90.00;;;;;;5058122;28;20054;-77
2021/07/04 07:12:38;;;;;;;41.50;27.90;;;20.40;90.00;;;;;;5061764;28;20033;-78
2021/07/04 07:15:04;;;;;;;42.85;29.50;;;20.50;89.90;;;;;;5052999;28;20082;-78
2021/07/04 07:17:30;;;;;;;38.45;27.23;;;20.50;89.80;;;;;;5045496;28;20034;-78
2021/07/04 07:19:56;;;;;;;39.58;26.95;;;20.70;89.50;;;;;;5069362;28;20033;-78
2021/07/04 07:22:22;;;;;;;32.65;24.75;;;20.70;89.10;;;;;;5051498;28;20021;-78
2021/07/04 07:24:48;;;;;;;32.30;23.10;;;20.80;88.30;;;;;;5056201;28;20111;-78
2021/07/04 07:27:14;;;;;;;33.42;25.90;;;20.80;88.10;;;;;;5055290;28;20021;-78
2021/07/04 07:29:40;;;;;;;35.97;27.58;;;20.80;87.70;;;;;;5045451;28;20041;-78
2021/07/04 07:32:07;;;;;;;35.08;26.88;;;20.90;87.50;;;;;;5062758;28;20032;-78
2021/07/04 07:34:33;;;;;;;33.75;25.75;;;20.90;87.70;;;;;;5033759;28;20034;-78
2021/07/04 07:36:59;;;;;;;29.90;24.38;;;21.00;87.60;;;;;;5033942;28;20111;-79
2021/07/04 07:39:24;;;;;;;32.95;23.58;;;21.00;87.10;;;;;;5039411;28;20060;-78
2021/07/04 07:41:50;;;;;;;28.40;22.80;;;21.00;86.80;;;;;;5049530;28;20026;-78
2021/07/04 07:44:16;;;;;;;35.47;26.23;;;21.10;86.90;;;;;;5062548;28;20041;-78
2021/07/04 07:46:42;;;;;;;36.58;26.30;;;21.00;86.90;;;;;;5057389;28;20478;-78
2021/07/04 07:49:08;;;;;;;32.65;25.80;;;21.00;86.80;;;;;;5037890;28;20139;-78
2021/07/04 07:51:35;;;;;;;34.17;24.48;;;20.90;86.60;;;;;;5039316;28;20021;-78
2021/07/04 07:54:00;;;;;;;37.92;26.55;;;20.90;87.00;;;;;;5060640;28;20040;-78
2021/07/04 07:56:26;;;;;;;31.80;24.45;;;20.90;87.30;;;;;;5052601;28;20039;-79
2021/07/04 07:58:52;;;;;;;33.88;25.45;;;21.00;87.40;;;;;;5054385;28;20032;-79
2021/07/04 08:01:17;;;;;;;32.08;25.33;;;21.10;87.30;;;;;;5055437;28;20036;-78
2021/07/04 08:03:43;;;;;;;35.67;26.95;;;21.20;87.00;;;;;;5052500;28;20034;-78
2021/07/04 08:06:09;;;;;;;35.50;27.70;;;21.20;87.10;;;;;;5060847;28;20124;-79
2021/07/04 08:08:36;;;;;;;36.55;27.25;;;21.20;87.30;;;;;;5056291;28;20086;-79
2021/07/04 08:11:02;;;;;;;41.63;29.20;;;21.20;87.30;;;;;;5055829;28;20037;-79
2021/07/04 08:13:27;;;;;;;36.58;27.38;;;21.30;87.50;;;;;;5061811;28;20013;-79
2021/07/04 08:15:53;;;;;;;40.33;28.30;;;21.30;87.70;;;;;;5070531;28;20086;-78
2021/07/04 08:18:19;;;;;;;39.45;28.20;;;21.40;87.80;;;;;;5068192;28;20449;-78
2021/07/04 08:20:45;;;;;;;34.63;25.88;;;21.40;87.60;;;;;;5053045;28;20032;-78
2021/07/04 08:23:10;;;;;;;42.60;28.55;;;21.50;87.30;;;;;;5051398;28;20029;-79
2021/07/04 08:25:36;;;;;;;41.30;31.58;;;21.70;87.10;;;;;;5034929;28;20083;-78
2021/07/04 08:28:02;;;;;;;32.63;26.73;;;21.80;86.40;;;;;;5056542;28;20028;-78
2021/07/04 08:30:27;;;;;;;39.75;28.92;;;21.90;86.20;;;;;;5063939;28;20651;-78
2021/07/04 08:32:53;;;;;;;34.40;25.35;;;21.90;85.80;;;;;;5040781;28;20063;-78
2021/07/04 08:35:19;;;;;;;33.92;26.65;;;21.90;85.20;;;;;;5074947;28;20100;-78
2021/07/04 08:37:44;;;;;;;33.80;25.00;;;21.90;85.20;;;;;;5058113;28;20431;-78
2021/07/04 08:40:11;;;;;;;35.40;26.95;;;21.90;84.80;;;;;;5071302;28;20025;-77
2021/07/04 08:42:37;;;;;;;32.45;25.67;;;22.00;84.30;;;;;;5054647;28;20401;-78
2021/07/04 08:45:04;;;;;;;33.38;25.40;;;22.10;82.90;;;;;;5063734;28;20017;-79
2021/07/04 08:47:31;;;;;;;35.90;24.85;;;22.20;82.60;;;;;;5054273;28;20083;-78
2021/07/04 08:49:56;;;;;;;31.80;24.88;;;22.20;82.30;;;;;;5067734;28;20025;-79
2021/07/04 08:52:22;;;;;;;35.03;24.75;;;22.50;80.60;;;;;;5072830;28;20025;-78
2021/07/04 08:54:48;;;;;;;30.80;23.38;;;22.60;80.70;;;;;;5074658;28;20032;-78
2021/07/04 08:57:16;;;;;;;30.13;23.50;;;22.70;80.90;;;;;;5074182;28;20112;-79
2021/07/04 08:59:44;;;;;;;38.37;28.40;;;22.80;81.60;;;;;;5064976;28;20366;-78
2021/07/04 09:02:14;;;;;;;39.83;28.98;;;22.80;80.80;;;;;;5055580;28;20104;-78
2021/07/04 09:04:57;;;;;;;38.75;28.60;;;22.80;80.80;;;;;;5053751;28;20123;-80
2021/07/04 09:07:30;;;;;;;32.63;23.67;;;22.80;80.80;;;;;;5072829;28;20029;-79
2021/07/04 09:10:05;;;;;;;39.80;26.63;;;23.00;79.90;;;;;;5055480;28;20488;-79
2021/07/04 09:12:39;;;;;;;33.17;25.75;;;23.10;79.70;;;;;;5068679;28;20107;-79
2021/07/04 09:15:13;;;;;;;32.20;24.33;;;23.10;79.30;;;;;;5074731;28;20046;-79
2021/07/04 09:17:41;;;;;;;31.67;22.95;;;23.20;79.00;;;;;;5067351;28;20485;-79
2021/07/04 09:20:11;;;;;;;32.23;25.03;;;23.20;78.40;;;;;;5054019;28;20409;-79
2021/07/04 09:22:42;;;;;;;34.13;25.10;;;23.10;78.50;;;;;;5060721;28;20481;-80
2021/07/04 09:25:13;;;;;;;34.80;26.33;;;23.20;79.90;;;;;;5066935;28;20025;-79
2021/07/04 09:27:40;;;;;;;34.65;25.98;;;23.20;79.30;;;;;;5073726;28;20066;-79
2021/07/04 09:30:11;;;;;;;34.17;26.08;;;23.30;78.30;;;;;;5045517;28;20052;-79
2021/07/04 09:32:37;;;;;;;37.40;26.73;;;23.20;78.00;;;;;;5069705;28;20074;-80
2021/07/04 09:35:17;;;;;;;37.03;28.20;;;23.10;78.80;;;;;;5056505;28;20033;-80
2021/07/04 09:37:45;;;;;;;41.25;30.50;;;22.90;78.80;;;;;;5060465;28;20046;-80
2021/07/04 09:40:16;;;;;;;38.50;28.98;;;22.70;79.50;;;;;;5071166;28;20112;-80
2021/07/04 09:43:00;;;;;;;39.20;28.90;;;22.70;80.20;;;;;;5070154;28;20071;-79
2021/07/04 09:45:40;;;;;;;38.40;30.17;;;22.80;79.90;;;;;;5074925;28;20028;-80
2021/07/04 09:48:06;;;;;;;46.83;32.35;;;23.00;79.60;;;;;;5059783;28;20466;-79
2021/07/04 09:50:38;;;;;;;41.17;29.67;;;23.10;79.60;;;;;;5069276;28;20025;-79
2021/07/04 09:53:04;;;;;;;33.70;27.10;;;23.40;78.70;;;;;;5054628;28;20027;-80
2021/07/04 09:55:30;;;;;;;36.95;28.27;;;23.70;77.50;;;;;;5063478;28;20533;-80
2021/07/04 09:58:02;;;;;;;38.47;26.63;;;24.00;77.20;;;;;;5053317;28;20154;-79
2021/07/04 10:00:33;;;;;;;29.73;22.92;;;24.20;77.20;;;;;;5064542;28;20024;-80
2021/07/04 10:03:17;;;;;;;27.42;23.08;;;24.40;75.20;;;;;;5073518;28;20063;-80
2021/07/04 10:06:03;;;;;;;27.88;22.17;;;24.60;74.30;;;;;;5046154;28;20048;-81
2021/07/04 10:08:31;;;;;;;31.27;24.05;;;24.80;71.90;;;;;;5052473;28;20032;-80
2021/07/04 10:11:05;;;;;;;26.92;21.33;;;25.00;71.10;;;;;;5052887;28;20051;-81
2021/07/04 10:13:32;;;;;;;23.20;19.55;;;25.20;71.90;;;;;;5054210;28;20021;-82
2021/07/04 10:15:58;;;;;;;25.75;19.20;;;25.20;69.90;;;;;;5052895;28;20028;-81
2021/07/04 10:18:25;;;;;;;26.52;18.58;;;25.10;69.00;;;;;;5062436;28;20077;-81
2021/07/04 10:20:52;;;;;;;27.25;21.38;;;25.20;69.80;;;;;;5072895;28;20026;-81
2021/07/04 10:23:28;;;;;;;22.27;18.95;;;25.20;69.30;;;;;;5072636;28;20036;-82
2021/07/04 10:25:57;;;;;;;21.85;17.48;;;25.00;69.40;;;;;;5067330;28;20382;-81
2021/07/04 10:28:32;;;;;;;21.90;17.38;;;24.90;70.90;;;;;;5053449;28;20021;-81
2021/07/04 10:31:01;;;;;;;23.60;18.95;;;25.10;70.90;;;;;;5052242;28;20021;-81
2021/07/04 10:33:35;;;;;;;27.27;20.92;;;25.30;70.80;;;;;;5058810;28;20657;-81
2021/07/04 10:36:07;;;;;;;29.67;23.00;;;25.60;69.70;;;;;;5046157;28;20123;-81
2021/07/04 10:39:10;;;;;;;27.63;20.13;;;25.70;68.90;;;;;;5065029;28;20028;-79
2021/07/04 10:41:36;;;;;;;23.58;19.00;;;25.60;68.20;;;;;;5018635;28;20491;-78
2021/07/04 10:44:12;;;;;;;26.17;19.58;;;25.60;69.10;;;;;;5053605;28;20032;-78
2021/07/04 10:46:41;;;;;;;24.60;17.15;;;25.70;67.80;;;;;;5053345;28;20025;-79
2021/07/04 10:49:11;;;;;;;18.73;16.23;;;25.70;67.70;;;;;;5067169;28;20486;-79
2021/07/04 10:51:55;;;;;;;23.00;17.17;;;25.80;67.70;;;;;;5061820;28;20075;-79
2021/07/04 10:54:48;;;;;;;21.77;16.85;;;25.80;66.60;;;;;;5073639;28;20113;-79
2021/07/04 10:57:19;;;;;;;19.45;16.48;;;25.80;68.20;;;;;;5048327;28;20068;-80
2021/07/04 11:00:00;;;;;;;19.17;14.70;;;25.80;66.70;;;;;;5053469;28;20469;-80
2021/07/04 11:02:58;;;;;;;16.95;14.20;;;25.80;65.60;;;;;;5052110;28;20543;-80
2021/07/04 11:05:36;;;;;;;18.90;15.05;;;25.90;64.60;;;;;;5052060;28;20129;-80
2021/07/04 11:08:02;;;;;;;17.50;13.90;;;25.80;63.20;;;;;;5053400;28;20070;-79
2021/07/04 11:10:31;;;;;;;18.05;14.65;;;25.70;65.00;;;;;;5053386;28;20017;-79
2021/07/04 11:13:17;;;;;;;14.70;12.00;;;25.60;66.30;;;;;;5066813;28;20036;-79
2021/07/04 11:15:44;;;;;;;14.88;12.52;;;25.70;64.70;;;;;;5061645;28;20036;-79
2021/07/04 11:18:12;;;;;;;17.33;13.75;;;25.80;65.10;;;;;;5073362;28;20397;-79
2021/07/04 11:20:42;;;;;;;16.92;13.85;;;25.80;64.80;;;;;;5072118;28;20024;-79
2021/07/04 11:23:19;;;;;;;15.52;13.25;;;25.90;64.60;;;;;;5073293;28;20021;-79
2021/07/04 11:25:56;;;;;;;14.77;12.57;;;26.10;64.30;;;;;;5072262;28;20029;-79
2021/07/04 11:28:25;;;;;;;15.25;13.13;;;26.20;65.00;;;;;;5072409;28;20421;-79
2021/07/04 11:31:17;;;;;;;18.70;13.48;;;26.30;65.10;;;;;;5073261;28;20059;-79
2021/07/04 11:33:48;;;;;;;19.92;15.93;;;26.20;65.30;;;;;;5073355;28;20028;-79
2021/07/04 11:36:16;;;;;;;21.33;16.55;;;26.10;64.40;;;;;;5071866;28;20031;-79
2021/07/04 11:38:58;;;;;;;18.88;15.10;;;25.90;65.10;;;;;;5071759;28;20107;-78
2021/07/04 11:41:34;;;;;;;17.85;14.88;;;25.70;64.80;;;;;;5059455;28;20108;-79
2021/07/04 11:44:06;;;;;;;17.63;14.43;;;25.60;66.30;;;;;;5050142;28;20474;-79
2021/07/04 11:46:33;;;;;;;17.10;14.32;;;25.40;66.60;;;;;;5052919;28;20056;-79
2021/07/04 11:49:10;;;;;;;15.03;12.00;;;25.30;67.70;;;;;;5054234;28;20029;-78
2021/07/04 11:51:45;;;;;;;15.35;11.90;;;25.20;67.00;;;;;;5051503;28;20132;-78
2021/07/04 11:54:17;;;;;;;13.77;11.32;;;25.10;67.20;;;;;;5054768;28;20020;-79
2021/07/04 11:56:46;;;;;;;14.68;11.52;;;25.10;67.00;;;;;;5050149;28;20037;-80
2021/07/04 11:59:23;;;;;;;13.88;11.85;;;25.10;69.70;;;;;;5052897;28;20051;-79
2021/07/04 12:01:59;;;;;;;15.70;12.20;;;25.00;69.20;;;;;;5066224;28;20040;-79
2021/07/04 12:04:31;;;;;;;14.95;12.18;;;25.10;68.20;;;;;;5056811;28;20410;-79
2021/07/04 12:07:24;;;;;;;16.60;12.57;;;25.00;67.90;;;;;;5056265;28;20037;-79
2021/07/04 12:09:55;;;;;;;16.00;11.52;;;24.90;68.30;;;;;;5065316;28;20389;-78
2021/07/04 12:12:27;;;;;;;16.15;11.55;;;24.90;68.80;;;;;;5074722;28;20031;-78
2021/07/04 12:14:54;;;;;;;15.35;12.77;;;24.80;69.10;;;;;;5076555;28;20025;-78
2021/07/04 12:17:33;;;;;;;16.60;13.33;;;24.80;69.40;;;;;;5061545;28;20031;-79
2021/07/04 12:20:00;;;;;;;;;;;24.70;69.60;;;;;;5056908;28;20070;-79
2021/07/04 12:22:33;;;;;;;14.18;12.65;;;24.70;69.60;;;;;;5056470;28;19905;-79
2021/07/04 12:25:00;;;;;;;17.40;13.52;;;24.50;70.60;;;;;;5056059;28;20049;-78
2021/07/04 12:27:53;;;;;;;15.85;12.95;;;24.50;71.00;;;;;;5068016;28;20028;-79
2021/07/04 12:30:25;;;;;;;17.38;13.30;;;24.40;70.00;;;;;;5052395;28;20044;-79
2021/07/04 12:33:11;;;;;;;19.17;14.48;;;24.30;70.40;;;;;;5049461;28;20087;-78